Gretna, FL (32332)

3:46 PM EDT on July 28, 2015 (GMT -0400)
Greensboro/Flat Creek | | Change Station
CLOSE
Current Station
Personal Weather Station
Location: Quincy, FL
Elevation: 285 ft
Nearby Weather Stations
Active Advisory: Heat Advisory

Elev 285 ft 30.59 °N, 84.73 °W | Updated 10 seconds ago

Partly Cloudy
Partly Cloudy
95.4 °F
Feels Like 102 °F
N
3.4
Wind Variable Wind from ESE
Gusts 4.9 mph

Today
High -- | Low -- °F
--% Chance of Precip.
Yesterday
High -- | Low -- °F
Precip. -- in
6:53 AM 8:35 PM
Waxing Gibbous, 91% visible
Pressure 29.95 in
Visibility 10.0 miles
Clouds Scattered Clouds 6000 ft
Mostly Cloudy 25000 ft
Heat Index 102 °F
Dew Point 70 °F
Humidity 44%
Rainfall 0.00 in
Snow Depth Not available.
UV 6.0 out of 12
Pollen 3.70 out of 12
Air Quality Not available.
Flu Activity Not available.
METAR KTLH 281853Z VRB04KT 10SM SCT060 BKN250 37/21 A2995 RMK AO2 SLP140 T03670206

More Conditions Fewer Conditions

Pressure 29.95 in
Visibility 10.0 miles
Clouds Scattered Clouds 6000 ft
Mostly Cloudy 25000 ft
Heat Index 102 °F
Dew Point 70 °F
Humidity 44%
Rainfall 0.00 in
Snow Depth Not available.
UV 6.0 out of 12
Pollen 3.70 out of 12
Air Quality Not available.
Flu Activity Not available.
METAR KTLH 281853Z VRB04KT 10SM SCT060 BKN250 37/21 A2995 RMK AO2 SLP140 T03670206

More Conditions Fewer Conditions

10-Day Weather Forecast

×

Almanac

Astronomy

Jul. 28, 2015 Rise Set
Actual Time
Civil Twilight
Nautical Twilight
Astronomical Twilight
Moon
Length of Visible Light
Length of Day
Tomorrow will be .
, % of the Moon is Illuminated

Today's Extremes

State Highs State Lows

Community

WunderPhotos

Upload Photos

1,841,935 photos uploaded!

WunderBlogs® & News

Nearby

Air Quality

  Air Quality AQ Index Pollutant
Not available.

Snow Depth

Station Depth Elevation

Earthquake Activity

City Distance Mag. Time & Date
Minimum magnitude displayed is 2.5.

Coastal Water Temperatures

Place Temperature

Stations

Nearby Weather Stations

Station Location Temp. Windchill Dew Point Humidity Wind Precip. Elev Updated Type
                   
Heat Advisory
Statement as of 8:57 AM CDT on July 28, 2015

... Heat advisory in effect from 1 PM EDT /noon CDT/ this
afternoon to 7 PM EDT /6 PM CDT/ this evening...

The National Weather Service in Tallahassee has issued a heat
advisory... which is in effect from 1 PM EDT /noon CDT/ this
afternoon to 7 PM EDT /6 PM CDT/ this evening.

* Temperature: highs 95 to 100 degrees.

* Heat index: maximum values around 110 degrees.

Precautionary/preparedness actions...

Take extra precautions... if you work or spend time outside. When
possible... reschedule strenuous activities to early morning or
evening. Know the signs and symptoms of heat exhaustion and heat
stroke. Wear light weight and loose fitting clothing when
possible and drink plenty of water.



Al